Time;durP1;ratioP1;P1;durP2;ratioP2;P2;SDS_P1;SDS_P2;PMS_P1;PMS_P2;Temp;Humidity;BMP_temperature;BMP_pressure;BME280_temperature;BME280_humidity;BME280_pressure;Samples;Min_cycle;Max_cycle;Signal;HPM_P1;HPM_P2
2022/01/26 00:07:41;;;;;;;13.65;8.45;;;-5.60;94.30;;;;;;5014411;28;20029;-82
2022/01/26 00:10:07;;;;;;;13.55;9.43;;;-5.50;94.10;;;;;;4998476;28;20095;-80
2022/01/26 00:12:33;;;;;;;13.68;8.00;;;-5.60;94.10;;;;;;5016158;28;20026;-80
2022/01/26 00:14:59;;;;;;;16.05;9.38;;;-5.50;94.10;;;;;;5015974;28;20033;-81
2022/01/26 00:17:24;;;;;;;16.38;7.60;;;-5.50;94.00;;;;;;5015842;28;20041;-81
2022/01/26 00:22:35;;;;;;;15.25;7.20;;;-5.60;93.80;;;;;;5016089;28;20487;-81
2022/01/26 00:27:50;;;;;;;12.13;7.28;;;-5.60;94.00;;;;;;5043184;28;20032;-81
2022/01/26 00:38:37;;;;;;;14.63;8.63;;;-5.60;94.40;;;;;;5022124;28;20109;-82
2022/01/26 00:41:07;;;;;;;16.95;7.93;;;-5.60;94.50;;;;;;5022306;28;20080;-83
2022/01/26 00:43:35;;;;;;;14.02;7.72;;;-5.60;94.60;;;;;;5016539;28;20030;-82
2022/01/26 00:46:03;;;;;;;13.27;8.05;;;-5.60;94.60;;;;;;4997836;28;20117;-84
2022/01/26 00:48:31;;;;;;;15.45;9.90;;;-5.50;94.70;;;;;;5017237;28;20052;-82
2022/01/26 00:51:00;;;;;;;15.02;8.15;;;-5.50;94.70;;;;;;5015886;28;20026;-80
2022/01/26 00:53:33;;;;;;;16.23;8.55;;;-5.50;94.50;;;;;;5015411;28;20025;-83
2022/01/26 00:56:00;;;;;;;15.63;9.27;;;-5.50;94.30;;;;;;5015016;28;20475;-82
2022/01/26 00:58:26;;;;;;;15.00;8.77;;;-5.50;94.20;;;;;;5014759;28;20533;-80
2022/01/26 01:00:52;;;;;;;15.77;8.63;;;-5.60;94.10;;;;;;5014980;28;20105;-82
2022/01/26 01:03:18;;;;;;;14.88;8.95;;;-5.60;94.20;;;;;;5016581;28;20034;-82
2022/01/26 01:05:57;;;;;;;15.88;8.75;;;-5.60;94.10;;;;;;5018667;28;20026;-82
2022/01/26 01:08:24;;;;;;;16.60;8.70;;;-5.70;94.00;;;;;;5030716;28;20060;-83
2022/01/26 01:10:51;;;;;;;;;;;-5.70;94.00;;;;;;5038314;28;20017;-79
2022/01/26 01:13:21;;;;;;;;;;;-5.70;94.00;;;;;;5039266;28;19909;-82
2022/01/26 01:15:48;;;;;;;14.15;9.15;;;-5.80;94.00;;;;;;5016913;28;20247;-81
2022/01/26 01:18:25;;;;;;;18.35;9.27;;;-5.90;93.90;;;;;;5034261;28;20113;-82
2022/01/26 01:29:23;;;;;;;19.35;10.30;;;-5.90;94.40;;;;;;5026180;28;20092;-81
2022/01/26 01:32:13;;;;;;;18.08;8.77;;;-5.90;94.40;;;;;;5017185;28;20025;-81
2022/01/26 01:34:39;;;;;;;17.88;9.52;;;-5.90;94.30;;;;;;5014313;28;20491;-81
2022/01/26 01:37:14;;;;;;;12.48;7.55;;;-5.90;94.30;;;;;;5014474;28;20467;-82
2022/01/26 01:39:40;;;;;;;17.95;9.07;;;-5.90;94.30;;;;;;5014044;28;20034;-82
2022/01/26 01:42:07;;;;;;;15.82;8.93;;;-5.90;94.40;;;;;;5030649;28;20429;-82
2022/01/26 01:44:34;;;;;;;19.15;11.90;;;-5.90;94.40;;;;;;5034108;28;20025;-83
2022/01/26 01:47:00;;;;;;;18.17;9.63;;;-5.80;94.40;;;;;;5034211;28;20030;-83
2022/01/26 01:49:26;;;;;;;20.05;10.40;;;-5.80;94.50;;;;;;5034074;28;20018;-84
2022/01/26 01:51:57;;;;;;;17.13;9.57;;;-5.80;94.40;;;;;;5033743;28;20068;-84
2022/01/26 01:54:23;;;;;;;15.75;8.77;;;-5.80;94.30;;;;;;5034183;28;20742;-83
2022/01/26 01:56:54;;;;;;;17.58;9.75;;;-5.80;94.30;;;;;;5034414;28;20482;-83
2022/01/26 01:59:22;;;;;;;19.98;11.57;;;-5.90;94.30;;;;;;5018114;28;20042;-81
2022/01/26 02:01:48;;;;;;;18.95;9.98;;;-5.90;94.20;;;;;;5013752;28;20513;-81
2022/01/26 02:04:14;;;;;;;15.30;9.63;;;-5.90;94.20;;;;;;5014024;28;20026;-81
2022/01/26 02:06:41;;;;;;;18.25;9.27;;;-5.90;94.40;;;;;;5014157;28;20025;-80
2022/01/26 02:09:06;;;;;;;17.45;11.05;;;-6.00;94.20;;;;;;5015271;28;20026;-81
2022/01/26 02:11:32;;;;;;;17.52;9.63;;;-5.90;94.30;;;;;;5021661;28;20092;-82
2022/01/26 02:14:06;;;;;;;15.05;8.82;;;-6.00;94.40;;;;;;5023692;28;20049;-82
2022/01/26 02:21:55;;;;;;;17.20;9.65;;;-5.80;94.80;;;;;;5013971;28;20031;-82
2022/01/26 03:02:40;;;;;;;20.67;12.07;;;-5.50;94.40;;;;;;5013530;28;20040;-83
2022/01/26 03:05:10;;;;;;;17.23;11.38;;;-5.50;94.20;;;;;;5028566;28;20036;-82
2022/01/26 03:10:12;;;;;;;22.27;11.02;;;-5.50;94.30;;;;;;5013256;28;20112;-82
2022/01/26 03:12:47;;;;;;;21.25;10.75;;;-5.50;94.30;;;;;;5013013;28;20478;-81
2022/01/26 03:15:22;;;;;;;16.83;10.07;;;-5.50;94.40;;;;;;5014624;28;20046;-82
2022/01/26 03:20:19;;;;;;;26.23;12.77;;;-5.40;94.40;;;;;;5034880;28;20066;-81
2022/01/26 03:28:19;;;;;;;26.35;12.55;;;-5.30;94.20;;;;;;5015544;28;20064;-80
2022/01/26 03:36:16;;;;;;;20.25;11.10;;;-5.40;93.80;;;;;;4936324;29;20024;-81
2022/01/26 03:38:46;;;;;;;23.02;11.57;;;-5.40;94.00;;;;;;4949071;28;20543;-82
2022/01/26 03:43:57;;;;;;;25.65;12.73;;;-5.40;94.40;;;;;;4956461;29;20097;-81
2022/01/26 03:46:24;;;;;;;22.60;11.48;;;-5.40;94.60;;;;;;4956337;29;20063;-81
2022/01/26 03:48:50;;;;;;;16.25;9.02;;;-5.40;94.50;;;;;;4956095;29;20078;-82
2022/01/26 03:51:16;;;;;;;27.10;14.15;;;-5.40;94.60;;;;;;4939934;29;20039;-81
2022/01/26 03:53:42;;;;;;;30.42;14.70;;;-5.50;94.60;;;;;;4956258;28;20909;-83
2022/01/26 03:56:08;;;;;;;23.33;10.98;;;-5.40;94.70;;;;;;4958419;29;20031;-81
2022/01/26 03:58:33;;;;;;;25.85;14.10;;;-5.40;94.70;;;;;;4979523;29;20043;-81
2022/01/26 04:00:59;;;;;;;25.80;12.45;;;-5.40;94.80;;;;;;4958268;29;20530;-81
2022/01/26 04:03:25;;;;;;;28.25;13.10;;;-5.40;94.90;;;;;;4956310;29;20114;-81
2022/01/26 04:05:51;;;;;;;24.63;14.80;;;-5.40;94.90;;;;;;4964570;29;20023;-82
2022/01/26 04:08:23;;;;;;;28.25;13.95;;;-5.40;94.90;;;;;;4956386;28;20102;-81
2022/01/26 04:13:15;;;;;;;27.10;13.35;;;-5.40;95.10;;;;;;5017260;28;20079;-82
2022/01/26 04:15:41;;;;;;;26.60;13.82;;;-5.30;95.20;;;;;;5016615;28;20022;-81
2022/01/26 04:18:12;;;;;;;26.67;14.77;;;-5.30;95.10;;;;;;5016822;28;20045;-81
2022/01/26 04:20:42;;;;;;;28.63;16.02;;;-5.40;95.00;;;;;;5018338;28;20033;-83
2022/01/26 04:23:15;;;;;;;28.27;16.02;;;-5.40;95.00;;;;;;5018213;28;20037;-82
2022/01/26 04:25:43;;;;;;;29.42;14.68;;;-5.30;95.10;;;;;;5020187;28;20021;-81
2022/01/26 04:28:14;;;;;;;35.40;15.20;;;-5.40;95.20;;;;;;5015603;28;20045;-80
2022/01/26 04:30:40;;;;;;;25.58;13.68;;;-5.40;95.30;;;;;;5017734;28;20038;-81
2022/01/26 04:33:07;;;;;;;30.50;14.27;;;-5.30;95.40;;;;;;5013196;28;20105;-80
2022/01/26 04:35:33;;;;;;;33.30;16.70;;;-5.30;95.40;;;;;;5029091;28;20018;-82
2022/01/26 04:41:28;;;;;;;30.70;17.30;;;-5.30;95.70;;;;;;5016319;28;20056;-82
2022/01/26 04:43:39;;;;;;;26.55;15.32;;;-5.30;95.80;;;;;;5031670;28;20037;-83
2022/01/26 04:46:06;;;;;;;29.35;15.80;;;-5.20;95.80;;;;;;5035865;28;20470;-82
2022/01/26 04:48:32;;;;;;;24.95;14.85;;;-5.20;95.80;;;;;;5035167;28;20029;-81
2022/01/26 04:50:58;;;;;;;36.95;18.98;;;-5.20;95.80;;;;;;5034963;28;20116;-82
2022/01/26 04:53:24;;;;;;;34.55;16.88;;;-5.20;96.00;;;;;;5035433;28;20026;-82
2022/01/26 04:55:50;;;;;;;29.67;15.55;;;-5.20;96.00;;;;;;5035189;28;20070;-83
2022/01/26 04:58:16;;;;;;;33.65;15.70;;;-5.20;96.20;;;;;;5024217;28;20092;-83
2022/01/26 05:00:41;;;;;;;28.50;17.02;;;-5.20;96.30;;;;;;5015765;28;20426;-83
2022/01/26 05:03:07;;;;;;;34.83;20.40;;;-5.10;96.30;;;;;;5015626;28;20025;-83
2022/01/26 05:05:33;;;;;;;32.03;16.73;;;-5.10;96.20;;;;;;5016894;28;20339;-84
2022/01/26 05:07:58;;;;;;;36.78;17.42;;;-5.10;96.20;;;;;;5016025;28;20100;-83
2022/01/26 05:10:24;;;;;;;33.42;17.73;;;-5.10;96.30;;;;;;5015927;28;20022;-83
2022/01/26 05:12:50;;;;;;;29.77;15.38;;;-5.10;96.30;;;;;;5018226;28;20029;-81
2022/01/26 05:15:21;;;;;;;37.30;17.83;;;-5.10;96.30;;;;;;5034905;28;20036;-82
2022/01/26 05:17:46;;;;;;;34.10;17.35;;;-5.00;96.40;;;;;;5034043;28;20474;-82
2022/01/26 05:20:13;;;;;;;29.50;17.17;;;-5.00;96.50;;;;;;5036385;28;20053;-82
2022/01/26 05:22:40;;;;;;;31.40;15.82;;;-5.00;96.40;;;;;;5037653;28;20469;-82
2022/01/26 05:25:07;;;;;;;33.05;18.17;;;-5.00;96.40;;;;;;5039211;28;20002;-81
2022/01/26 05:27:33;;;;;;;37.55;19.15;;;-5.00;96.50;;;;;;5038603;28;20076;-82
2022/01/26 05:29:59;;;;;;;34.08;18.27;;;-4.90;96.70;;;;;;5029166;28;20104;-82
2022/01/26 05:32:25;;;;;;;33.50;18.17;;;-4.90;96.70;;;;;;4999762;28;20487;-81
2022/01/26 05:34:52;;;;;;;28.97;11.53;;;-4.90;96.70;;;;;;5015975;28;20398;-80
2022/01/26 05:37:18;;;;;;;31.07;17.40;;;-4.80;96.70;;;;;;4997310;28;20065;-80
2022/01/26 05:39:44;;;;;;;35.20;17.40;;;-4.80;96.80;;;;;;5016182;28;20070;-83
2022/01/26 05:42:10;;;;;;;39.58;18.92;;;-4.80;97.10;;;;;;5010977;28;20033;-80
2022/01/26 05:44:36;;;;;;;28.80;15.40;;;-4.80;96.90;;;;;;5031606;28;20089;-82
2022/01/26 05:47:05;;;;;;;34.78;20.23;;;-4.70;97.00;;;;;;5014855;28;20026;-82
2022/01/26 05:49:31;;;;;;;32.40;17.90;;;-4.70;97.00;;;;;;5015257;28;20022;-81
2022/01/26 05:51:57;;;;;;;38.10;18.83;;;-4.70;97.00;;;;;;5014409;28;20502;-81
2022/01/26 05:54:23;;;;;;;28.98;15.60;;;-4.60;97.00;;;;;;5013560;28;20125;-84
2022/01/26 05:56:48;;;;;;;40.20;18.98;;;-4.70;97.00;;;;;;5027933;28;20037;-80
2022/01/26 05:59:20;;;;;;;42.30;20.73;;;-4.60;97.00;;;;;;5033912;28;20489;-80
2022/01/26 06:01:47;;;;;;;38.35;19.42;;;-4.60;97.00;;;;;;5034029;28;20021;-83
2022/01/26 06:04:13;;;;;;;33.17;17.70;;;-4.60;97.00;;;;;;5032573;28;20395;-81
2022/01/26 06:06:39;;;;;;;25.88;15.20;;;-4.60;97.10;;;;;;5033609;28;20030;-81
2022/01/26 06:09:05;;;;;;;43.53;21.05;;;-4.60;97.00;;;;;;5019866;28;20057;-84
2022/01/26 06:11:31;;;;;;;34.45;17.15;;;-4.60;97.00;;;;;;5014398;28;20033;-82
2022/01/26 06:13:57;;;;;;;33.55;16.40;;;-4.50;97.20;;;;;;5014383;28;20451;-83
2022/01/26 06:16:23;;;;;;;34.30;18.17;;;-4.50;97.30;;;;;;5013986;28;20026;-82
2022/01/26 06:18:49;;;;;;;39.78;19.85;;;-4.40;97.40;;;;;;5014002;28;20507;-80
2022/01/26 06:21:15;;;;;;;27.00;15.57;;;-4.40;97.30;;;;;;5015426;28;20387;-84
2022/01/26 06:23:41;;;;;;;27.27;17.25;;;-4.40;97.30;;;;;;5021664;28;20104;-83
2022/01/26 06:26:07;;;;;;;27.23;14.32;;;-4.30;97.40;;;;;;5040778;28;20030;-82
2022/01/26 06:28:33;;;;;;;27.92;14.63;;;-4.30;97.00;;;;;;5002998;28;20513;-83
2022/01/26 06:31:09;;;;;;;28.60;17.00;;;-4.30;96.90;;;;;;5026132;28;20045;-84
2022/01/26 06:33:35;;;;;;;26.95;14.40;;;-4.30;96.90;;;;;;5039055;28;20028;-82
2022/01/26 06:36:03;;;;;;;33.37;19.70;;;-4.30;96.80;;;;;;5042689;28;20024;-82
2022/01/26 06:38:29;;;;;;;25.92;15.00;;;-4.30;96.80;;;;;;5033426;28;20034;-84
2022/01/26 06:40:59;;;;;;;26.08;15.82;;;-4.30;96.90;;;;;;5049140;28;20033;-85
2022/01/26 06:43:29;;;;;;;32.17;17.73;;;-4.30;97.00;;;;;;5047349;28;20037;-84
2022/01/26 06:46:07;;;;;;;33.20;18.45;;;-4.30;97.00;;;;;;5034803;28;20044;-84
2022/01/26 06:51:17;;;;;;;25.00;14.93;;;-4.20;97.10;;;;;;5038110;28;20063;-85
2022/01/26 06:53:43;;;;;;;27.02;17.45;;;-4.20;97.10;;;;;;5049860;28;20021;-84
2022/01/26 06:56:10;;;;;;;33.08;17.48;;;-4.20;97.20;;;;;;5048095;28;20047;-84
2022/01/26 06:58:35;;;;;;;28.08;16.92;;;-4.10;97.30;;;;;;5034008;28;20103;-84
2022/01/26 07:01:01;;;;;;;29.90;16.85;;;-4.10;97.20;;;;;;5018109;28;20033;-81
2022/01/26 07:03:27;;;;;;;27.00;14.98;;;-4.10;97.20;;;;;;5016137;28;20026;-84
2022/01/26 07:05:53;;;;;;;27.30;15.88;;;-4.10;97.00;;;;;;5016589;28;20030;-85
2022/01/26 07:08:18;;;;;;;33.55;17.35;;;-4.10;97.20;;;;;;5020601;28;20117;-84
2022/01/26 07:10:47;;;;;;;27.13;13.77;;;-4.00;97.30;;;;;;5033046;28;20026;-85
2022/01/26 07:13:12;;;;;;;26.65;15.98;;;-4.00;97.30;;;;;;5033020;28;20809;-83
2022/01/26 07:21:27;;;;;;;32.50;15.63;;;-3.80;97.20;;;;;;5018067;28;20041;-81
2022/01/26 07:23:58;;;;;;;33.45;17.88;;;-3.80;97.00;;;;;;5032042;28;20026;-81
2022/01/26 07:26:28;;;;;;;31.38;16.40;;;-3.80;97.10;;;;;;5014935;28;20029;-80
2022/01/26 07:28:55;;;;;;;29.73;18.48;;;-3.80;97.20;;;;;;5024250;28;20054;-80
2022/01/26 07:31:21;;;;;;;31.75;15.48;;;-3.80;97.20;;;;;;5023210;28;20049;-79
2022/01/26 07:33:53;;;;;;;41.42;16.23;;;-3.80;97.30;;;;;;5014773;28;20026;-80
2022/01/26 07:36:19;;;;;;;33.65;14.77;;;-3.70;97.50;;;;;;5031511;28;20052;-80
2022/01/26 07:38:49;;;;;;;29.85;15.43;;;-3.60;97.50;;;;;;5040870;28;20036;-79
2022/01/26 07:41:14;;;;;;;28.15;16.02;;;-3.60;97.50;;;;;;5036587;28;20021;-80
2022/01/26 07:43:40;;;;;;;23.83;13.45;;;-3.50;97.60;;;;;;5033050;28;20021;-80
2022/01/26 07:46:06;;;;;;;31.58;15.77;;;-3.50;97.40;;;;;;5032440;28;20589;-79
2022/01/26 07:48:32;;;;;;;33.78;13.18;;;-3.50;97.20;;;;;;5031217;28;20070;-80
2022/01/26 07:50:58;;;;;;;24.80;13.90;;;-3.50;97.10;;;;;;5003115;28;20034;-81
2022/01/26 07:53:24;;;;;;;24.90;13.77;;;-3.40;96.90;;;;;;5011836;28;20049;-81
2022/01/26 07:55:50;;;;;;;28.45;15.35;;;-3.40;97.00;;;;;;5012322;28;20463;-82
2022/01/26 07:58:18;;;;;;;29.23;16.20;;;-3.40;97.10;;;;;;5011939;28;20041;-82
2022/01/26 08:00:44;;;;;;;32.88;17.80;;;-3.30;96.90;;;;;;5012428;28;20492;-80
2022/01/26 08:03:10;;;;;;;32.75;15.88;;;-3.40;96.80;;;;;;5012124;28;20113;-81
2022/01/26 08:05:36;;;;;;;31.05;14.80;;;-3.40;96.90;;;;;;5012065;28;20100;-82
2022/01/26 08:08:02;;;;;;;31.60;16.00;;;-3.40;96.70;;;;;;5014047;28;20053;-80
2022/01/26 08:10:28;;;;;;;27.63;14.52;;;-3.30;96.80;;;;;;5011825;28;20440;-81
2022/01/26 08:12:53;;;;;;;31.83;16.40;;;-3.30;96.90;;;;;;5012017;28;20022;-80
2022/01/26 08:15:19;;;;;;;32.40;16.65;;;-3.30;97.00;;;;;;5013659;28;20033;-79
2022/01/26 08:17:45;;;;;;;34.53;17.27;;;-3.30;97.10;;;;;;5013310;28;20038;-81
2022/01/26 08:20:11;;;;;;;41.17;17.45;;;-3.30;97.10;;;;;;5011710;28;20097;-81
2022/01/26 08:22:39;;;;;;;37.72;18.88;;;-3.30;97.20;;;;;;5012089;28;20112;-81
2022/01/26 08:25:05;;;;;;;32.50;16.63;;;-3.20;97.40;;;;;;5011688;28;20029;-79
2022/01/26 08:27:39;;;;;;;30.15;15.77;;;-3.20;97.40;;;;;;5012511;28;20076;-81
2022/01/26 08:30:10;;;;;;;37.75;17.92;;;-3.20;97.30;;;;;;5014936;28;20057;-79
2022/01/26 08:32:36;;;;;;;31.58;16.17;;;-3.20;97.30;;;;;;5015412;28;20026;-81
2022/01/26 08:35:03;;;;;;;33.83;15.93;;;-3.10;97.40;;;;;;5015462;28;20440;-81
2022/01/26 08:37:28;;;;;;;31.23;15.98;;;-3.10;97.40;;;;;;5015250;28;20121;-80
2022/01/26 08:39:54;;;;;;;27.58;16.40;;;-3.10;97.30;;;;;;5015300;28;20390;-81
2022/01/26 08:42:21;;;;;;;33.20;14.73;;;-3.10;97.30;;;;;;5032219;28;20026;-81
2022/01/26 08:44:46;;;;;;;41.55;17.45;;;-3.00;97.30;;;;;;5035516;28;20036;-79
2022/01/26 08:47:12;;;;;;;35.80;19.02;;;-3.00;97.40;;;;;;5035568;28;20025;-80
2022/01/26 08:49:38;;;;;;;32.20;18.70;;;-3.00;97.30;;;;;;5037016;28;20451;-81
2022/01/26 08:52:04;;;;;;;35.35;16.15;;;-3.00;97.30;;;;;;5035723;28;20105;-81
2022/01/26 08:54:30;;;;;;;28.90;14.57;;;-2.90;97.30;;;;;;5036858;28;20026;-84
2022/01/26 08:56:56;;;;;;;28.92;14.05;;;-3.00;97.30;;;;;;5036372;28;20018;-82
2022/01/26 08:59:23;;;;;;;27.67;14.68;;;-2.90;97.40;;;;;;5020636;28;20076;-80
2022/01/26 09:01:49;;;;;;;;;;;-2.80;97.50;;;;;;5016416;28;20018;-79
2022/01/26 09:04:16;;;;;;;28.27;13.75;;;-2.80;97.50;;;;;;5014987;28;19906;-81
2022/01/26 09:06:57;;;;;;;26.58;11.98;;;-2.80;97.30;;;;;;5015110;28;20125;-81
2022/01/26 09:09:24;;;;;;;20.00;11.93;;;-2.70;97.30;;;;;;4997944;28;20075;-82
2022/01/26 09:11:50;;;;;;;;;;;-2.70;97.10;;;;;;5016312;28;20114;-81
2022/01/26 09:14:27;;;;;;;22.88;10.55;;;-2.70;97.00;;;;;;5022046;28;19920;-81
2022/01/26 09:16:53;;;;;;;17.08;10.77;;;-2.70;96.90;;;;;;5041328;28;20026;-81
2022/01/26 09:19:29;;;;;;;18.43;9.93;;;-2.70;97.10;;;;;;5032083;28;20033;-80
2022/01/26 09:21:57;;;;;;;17.73;10.05;;;-2.70;97.20;;;;;;5014751;28;20664;-81
2022/01/26 09:24:30;;;;;;;19.27;10.68;;;-2.60;97.20;;;;;;5015027;28;20075;-81
2022/01/26 09:26:57;;;;;;;13.93;8.82;;;-2.60;97.00;;;;;;5015024;28;20084;-80
2022/01/26 09:29:23;;;;;;;20.70;9.90;;;-2.50;96.70;;;;;;5014550;28;20555;-82
2022/01/26 09:31:50;;;;;;;16.80;9.20;;;-2.50;96.60;;;;;;5013807;28;20368;-80
2022/01/26 09:34:24;;;;;;;22.73;12.02;;;-2.50;96.80;;;;;;5014624;28;20037;-82
2022/01/26 09:36:50;;;;;;;15.68;9.20;;;-2.40;96.70;;;;;;5013825;28;20041;-79
2022/01/26 09:39:19;;;;;;;16.20;7.80;;;-2.40;96.60;;;;;;5015854;28;20403;-82
2022/01/26 09:41:45;;;;;;;18.38;9.77;;;-2.40;96.40;;;;;;5016869;28;20044;-81
2022/01/26 09:44:13;;;;;;;15.75;8.55;;;-2.40;96.10;;;;;;5021661;28;20030;-77
2022/01/26 09:46:39;;;;;;;13.02;9.10;;;-2.40;95.80;;;;;;5002495;28;20482;-81
2022/01/26 09:49:06;;;;;;;14.53;7.57;;;-2.40;95.80;;;;;;5020379;28;20107;-82
2022/01/26 09:51:39;;;;;;;11.63;7.40;;;-2.30;95.90;;;;;;5035641;28;20061;-82
2022/01/26 09:54:13;;;;;;;10.40;6.15;;;-2.30;95.50;;;;;;5034403;28;20032;-82
2022/01/26 09:56:39;;;;;;;12.13;6.70;;;-2.30;95.20;;;;;;5032853;28;20203;-80
2022/01/26 09:59:06;;;;;;;13.70;8.07;;;-2.30;95.20;;;;;;5033421;28;20036;-79
2022/01/26 10:01:42;;;;;;;12.93;6.72;;;-2.30;95.50;;;;;;5034337;28;20021;-80
2022/01/26 10:04:22;;;;;;;11.70;6.50;;;-2.30;95.60;;;;;;5039419;28;20040;-81
2022/01/26 10:10:03;;;;;;;12.18;6.93;;;-2.30;95.10;;;;;;5017684;28;20059;-81
2022/01/26 10:15:35;;;;;;;12.52;8.32;;;-2.40;95.20;;;;;;5017806;28;20550;-80
2022/01/26 10:18:15;;;;;;;10.27;6.13;;;-2.40;95.20;;;;;;5014648;28;20052;-81
2022/01/26 10:20:45;;;;;;;14.13;7.28;;;-2.40;95.20;;;;;;5015209;28;20022;-81
2022/01/26 10:23:16;;;;;;;15.63;6.85;;;-2.40;95.20;;;;;;5007026;28;20033;-82
2022/01/26 10:25:44;;;;;;;9.82;5.60;;;-2.40;95.20;;;;;;5034922;28;20021;-82
2022/01/26 10:28:11;;;;;;;13.38;7.18;;;-2.40;95.40;;;;;;5035927;28;20113;-81
2022/01/26 10:30:42;;;;;;;12.45;6.35;;;-2.50;95.50;;;;;;5017569;28;20106;-83
2022/01/26 10:33:10;;;;;;;13.13;7.20;;;-2.50;95.60;;;;;;5035100;28;20149;-83
2022/01/26 10:35:36;;;;;;;9.50;6.28;;;-2.40;95.60;;;;;;5033528;28;20021;-79
2022/01/26 10:38:03;;;;;;;8.93;6.13;;;-2.40;95.50;;;;;;5026875;28;20041;-82
2022/01/26 10:40:31;;;;;;;13.23;7.68;;;-2.40;95.50;;;;;;4997412;28;20072;-81
2022/01/26 10:43:05;;;;;;;10.38;6.65;;;-2.40;95.50;;;;;;5020381;28;20037;-82
2022/01/26 10:45:38;;;;;;;8.75;6.38;;;-2.30;95.70;;;;;;5015601;28;20018;-79
2022/01/26 10:48:23;;;;;;;13.02;7.00;;;-2.40;95.40;;;;;;5016115;28;20104;-80
2022/01/26 10:53:41;;;;;;;13.75;9.38;;;-2.40;95.50;;;;;;5019943;28;20044;-82
2022/01/26 10:56:07;;;;;;;9.43;6.05;;;-2.30;95.50;;;;;;5033077;28;20375;-80
2022/01/26 10:58:33;;;;;;;14.23;6.43;;;-2.30;95.60;;;;;;5033012;28;20040;-80
2022/01/26 11:00:59;;;;;;;11.63;5.68;;;-2.20;95.40;;;;;;5034479;28;20021;-82
2022/01/26 11:03:25;;;;;;;16.63;7.30;;;-2.20;95.40;;;;;;5038330;28;20517;-82
2022/01/26 11:05:52;;;;;;;11.65;7.40;;;-2.30;95.30;;;;;;5046662;28;20017;-80
2022/01/26 11:08:19;;;;;;;14.38;8.63;;;-2.30;95.10;;;;;;5036983;28;20021;-82
2022/01/26 11:10:46;;;;;;;14.35;7.80;;;-2.30;95.20;;;;;;5032005;28;20032;-81
2022/01/26 11:13:28;;;;;;;10.93;6.68;;;-2.30;95.50;;;;;;5033167;28;20112;-80
2022/01/26 11:16:07;;;;;;;11.68;6.95;;;-2.30;95.60;;;;;;5031693;28;20026;-80
2022/01/26 11:18:53;;;;;;;13.95;6.45;;;-2.20;95.40;;;;;;5014842;28;20045;-80
2022/01/26 11:21:35;;;;;;;12.80;8.90;;;-2.30;95.10;;;;;;5012636;28;20018;-80
2022/01/26 11:24:21;;;;;;;12.82;8.18;;;-2.30;95.30;;;;;;5012735;28;20022;-79
2022/01/26 11:27:04;;;;;;;11.55;7.03;;;-2.30;95.40;;;;;;5012508;28;20100;-82
2022/01/26 11:29:33;;;;;;;9.50;6.88;;;-2.30;95.40;;;;;;5012773;28;20054;-82
2022/01/26 11:32:33;;;;;;;11.85;6.78;;;-2.20;95.20;;;;;;5013764;28;20018;-81
2022/01/26 11:35:04;;;;;;;9.23;5.55;;;-2.20;95.10;;;;;;5013136;28;20440;-80
2022/01/26 11:37:42;;;;;;;13.38;8.15;;;-2.20;95.00;;;;;;5014118;28;20057;-81
2022/01/26 11:45:34;;;;;;;16.80;7.78;;;-2.30;95.00;;;;;;5024344;28;20053;-80
2022/01/26 11:48:21;;;;;;;9.82;6.15;;;-2.30;95.00;;;;;;5034768;28;20022;-81
2022/01/26 11:51:01;;;;;;;12.15;6.43;;;-2.20;95.00;;;;;;5017053;28;20125;-81
2022/01/26 11:53:28;;;;;;;10.20;7.15;;;-2.20;94.90;;;;;;5037200;28;20028;-82
2022/01/26 11:56:07;;;;;;;13.40;7.85;;;-2.20;95.00;;;;;;5034434;28;20040;-81
2022/01/26 11:58:39;;;;;;;14.32;8.00;;;-2.20;95.00;;;;;;5032935;28;20041;-81
2022/01/26 12:03:42;;;;;;;14.13;6.97;;;-2.10;95.30;;;;;;5034989;28;20037;-81
2022/01/26 12:06:14;;;;;;;14.90;6.07;;;-2.10;95.40;;;;;;5015441;28;20112;-81
2022/01/26 12:08:39;;;;;;;10.43;6.78;;;-2.10;95.20;;;;;;5015723;28;20076;-79
2022/01/26 12:11:09;;;;;;;11.60;6.65;;;-2.10;95.10;;;;;;4998198;28;20022;-83
2022/01/26 12:13:39;;;;;;;15.15;6.78;;;-2.10;94.90;;;;;;5015902;28;20519;-82
2022/01/26 12:16:13;;;;;;;11.77;6.47;;;-2.10;94.80;;;;;;5015657;28;20162;-83
2022/01/26 12:19:21;;;;;;;11.68;6.43;;;-2.10;94.40;;;;;;5015639;28;20038;-80
2022/01/26 12:35:53;;;;;;;12.63;7.47;;;-2.10;94.80;;;;;;5035161;28;20033;-81
2022/01/26 12:38:32;;;;;;;13.05;6.13;;;-2.10;94.80;;;;;;5015751;28;20037;-82
2022/01/26 12:43:53;;;;;;;14.10;7.25;;;-2.10;95.00;;;;;;5016117;28;20092;-82
2022/01/26 12:46:31;;;;;;;7.43;4.32;;;-2.10;95.00;;;;;;5016171;28;20022;-81
2022/01/26 12:49:06;;;;;;;9.80;5.70;;;-2.00;95.10;;;;;;5016246;28;20032;-82
2022/01/26 12:51:42;;;;;;;9.32;6.40;;;-2.10;95.10;;;;;;5016315;28;20108;-81
2022/01/26 12:54:08;;;;;;;13.57;7.28;;;-2.00;95.00;;;;;;5016429;28;20069;-80
2022/01/26 12:56:34;;;;;;;14.75;6.78;;;-2.00;94.80;;;;;;5023608;28;20022;-81
2022/01/26 12:59:06;;;;;;;12.43;7.30;;;-2.10;95.00;;;;;;5022254;28;20030;-82
2022/01/26 13:01:32;;;;;;;9.48;5.97;;;-2.10;95.20;;;;;;5017980;28;20113;-83
2022/01/26 13:04:00;;;;;;;11.60;5.60;;;-2.10;95.50;;;;;;5015690;28;20026;-80
2022/01/26 13:06:28;;;;;;;11.32;7.95;;;-2.10;95.60;;;;;;5014988;28;20156;-82
2022/01/26 13:08:56;;;;;;;11.23;5.65;;;-2.10;95.50;;;;;;5014930;28;20066;-82
2022/01/26 13:11:29;;;;;;;9.50;6.40;;;-2.10;95.40;;;;;;5016892;28;20053;-81
2022/01/26 13:14:12;;;;;;;14.63;7.03;;;-2.20;95.50;;;;;;5033613;28;20031;-84
2022/01/26 13:16:41;;;;;;;10.02;6.95;;;-2.20;95.70;;;;;;5015787;28;20025;-81
2022/01/26 13:19:35;;;;;;;12.57;5.78;;;-2.10;95.90;;;;;;5014684;28;20100;-83
2022/01/26 13:25:02;;;;;;;10.05;5.57;;;-2.10;95.90;;;;;;5014836;28;20030;-81
2022/01/26 13:27:53;;;;;;;14.43;5.63;;;-2.10;96.00;;;;;;5014649;28;20018;-78
2022/01/26 13:38:44;;;;;;;8.90;4.05;;;-2.10;95.60;;;;;;5014075;28;20123;-81
2022/01/26 13:46:17;;;;;;;9.00;5.43;;;-2.10;95.70;;;;;;5014429;28;20152;-81
2022/01/26 13:48:59;;;;;;;9.50;5.10;;;-2.20;95.80;;;;;;5014309;28;20467;-81
2022/01/26 13:54:27;;;;;;;6.78;4.80;;;-2.20;95.70;;;;;;5009968;28;20040;-82
2022/01/26 13:59:25;;;;;;;9.20;5.07;;;-2.10;95.90;;;;;;5038120;28;20482;-79
2022/01/26 14:01:52;;;;;;;8.10;4.60;;;-2.10;95.80;;;;;;5042782;28;20022;-80
2022/01/26 14:04:18;;;;;;;6.82;5.10;;;-2.10;95.90;;;;;;5022631;28;20033;-81
2022/01/26 14:06:46;;;;;;;9.70;4.20;;;-2.10;95.90;;;;;;5018871;28;20113;-81
2022/01/26 14:09:12;;;;;;;8.00;4.47;;;-2.10;96.00;;;;;;5017287;28;20033;-79
2022/01/26 14:11:38;;;;;;;9.57;5.20;;;-2.10;96.00;;;;;;5018673;28;20087;-79
2022/01/26 14:14:04;;;;;;;7.65;5.07;;;-2.10;95.80;;;;;;5015031;28;20034;-79
2022/01/26 14:16:39;;;;;;;7.70;4.93;;;-2.10;95.80;;;;;;5014613;28;20131;-82
2022/01/26 14:19:13;;;;;;;10.70;5.78;;;-2.20;95.80;;;;;;5013844;28;20414;-81
2022/01/26 14:24:33;;;;;;;6.85;4.57;;;-2.20;95.60;;;;;;5013988;28;20104;-79
2022/01/26 14:27:02;;;;;;;7.63;4.30;;;-2.20;95.80;;;;;;4995648;28;20026;-79
2022/01/26 14:29:41;;;;;;;8.35;4.95;;;-2.20;96.10;;;;;;5014363;28;20042;-80
2022/01/26 14:32:24;;;;;;;11.10;3.03;;;-2.20;96.00;;;;;;5016377;28;20117;-82
2022/01/26 15:00:05;;;;;;;5.38;3.67;;;-2.40;94.90;;;;;;5013046;28;20038;-80
2022/01/26 15:43:27;;;;;;;8.00;2.88;;;-2.80;96.00;;;;;;5036158;28;20087;-81
2022/01/26 15:53:09;;;;;;;5.43;3.60;;;-2.80;95.60;;;;;;5031168;28;20463;-81
2022/01/26 15:58:27;;;;;;;6.40;3.30;;;-2.80;95.70;;;;;;5016611;28;20104;-80
2022/01/26 16:06:42;;;;;;;6.55;3.13;;;-2.80;95.50;;;;;;5020920;28;20060;-80
2022/01/26 16:20:17;;;;;;;3.47;2.75;;;-3.00;94.70;;;;;;5016558;28;20136;-79
2022/01/26 16:36:56;;;;;;;6.03;2.85;;;-3.20;95.10;;;;;;5016030;28;20491;-80
2022/01/26 17:46:46;;;;;;;4.55;2.80;;;-3.30;94.60;;;;;;5034056;28;20045;-80
2022/01/26 18:31:49;;;;;;;5.63;3.25;;;-3.30;94.40;;;;;;5017011;28;20033;-81
2022/01/26 18:32:43;;;;;;;6.30;2.88;;;-3.30;94.00;;;;;;5031012;28;20045;-83
2022/01/26 18:46:47;;;;;;;5.35;3.75;;;-3.40;93.80;;;;;;5025577;28;20083;-84
2022/01/26 18:49:20;;;;;;;3.90;2.92;;;-3.40;94.00;;;;;;5017336;28;20454;-79
2022/01/26 18:51:49;;;;;;;3.75;2.47;;;-3.40;93.80;;;;;;5013019;28;20395;-82
2022/01/26 18:54:16;;;;;;;4.82;3.17;;;-3.40;94.20;;;;;;5012903;28;20434;-84
2022/01/26 18:56:41;;;;;;;4.32;2.72;;;-3.40;94.00;;;;;;5016497;28;20029;-81
2022/01/26 18:59:10;;;;;;;4.80;3.03;;;-3.40;93.90;;;;;;5012432;28;20041;-79
2022/01/26 19:01:36;;;;;;;6.80;2.80;;;-3.40;93.80;;;;;;5013203;28;20030;-81
2022/01/26 19:04:02;;;;;;;5.03;2.67;;;-3.40;93.70;;;;;;5012849;28;20101;-81
2022/01/26 19:06:28;;;;;;;7.28;2.65;;;-3.40;93.80;;;;;;5012482;28;20026;-83
2022/01/26 19:08:54;;;;;;;5.15;2.95;;;-3.40;93.80;;;;;;5026156;28;20033;-81
2022/01/26 19:11:21;;;;;;;5.43;3.13;;;-3.40;93.80;;;;;;5012488;28;20096;-82
2022/01/26 19:13:48;;;;;;;;;;;-3.40;93.80;;;;;;5013492;28;20018;-80
2022/01/26 19:16:53;;;;;;;5.18;3.28;;;-3.40;93.80;;;;;;5013360;28;19905;-82